createdAt,value
2023-05-10T00:02:36.254Z,100.00
2023-05-10T00:05:39.530Z,100.00
2023-05-10T00:08:42.376Z,100.00
2023-05-10T00:11:45.370Z,100.00
2023-05-10T00:14:47.980Z,100.00
2023-05-10T00:17:51.080Z,100.00
2023-05-10T00:20:53.741Z,100.00
2023-05-10T00:23:56.884Z,100.00
2023-05-10T00:26:59.613Z,100.00
2023-05-10T00:30:02.633Z,100.00
2023-05-10T00:33:06.634Z,100.00
2023-05-10T00:36:09.854Z,100.00
2023-05-10T00:39:13.361Z,100.00
2023-05-10T00:42:16.315Z,100.00
2023-05-10T00:45:20.231Z,100.00
2023-05-10T00:48:23.455Z,100.00
2023-05-10T00:51:26.360Z,100.00
2023-05-10T00:54:29.551Z,100.00
2023-05-10T00:57:32.425Z,100.00
2023-05-10T01:00:36.629Z,100.00
2023-05-10T01:03:41.019Z,100.00
2023-05-10T01:06:44.969Z,100.00
2023-05-10T01:09:48.089Z,100.00
2023-05-10T01:12:52.274Z,100.00
2023-05-10T01:15:55.713Z,100.00
2023-05-10T01:18:59.040Z,100.00
2023-05-10T01:22:38.982Z,100.00
2023-05-10T01:25:56.960Z,100.00
2023-05-10T01:29:10.868Z,100.00
2023-05-10T01:32:20.547Z,100.00
2023-05-10T01:35:35.444Z,100.00
2023-05-10T01:38:41.481Z,100.00
2023-05-10T01:41:52.488Z,100.00
2023-05-10T01:45:21.080Z,100.00
2023-05-10T01:48:26.086Z,100.00
2023-05-10T01:51:37.809Z,100.00
2023-05-10T01:54:45.953Z,100.00
2023-05-10T01:57:53.691Z,100.00
2023-05-10T02:00:59.392Z,100.00
2023-05-10T02:04:03.987Z,100.00
2023-05-10T02:07:08.099Z,100.00
2023-05-10T02:10:12.752Z,100.00
2023-05-10T02:13:17.130Z,100.00
2023-05-10T02:16:24.819Z,100.00
2023-05-10T02:19:30.032Z,100.00
2023-05-10T02:22:33.916Z,100.00
2023-05-10T02:25:38.480Z,100.00
2023-05-10T02:28:43.261Z,100.00
2023-05-10T02:31:47.025Z,100.00
2023-05-10T02:34:52.955Z,100.00
2023-05-10T02:37:57.595Z,100.00
2023-05-10T02:41:01.069Z,100.00
2023-05-10T02:44:07.892Z,100.00
2023-05-10T02:47:10.617Z,100.00
2023-05-10T02:50:14.169Z,100.00
2023-05-10T02:53:22.983Z,100.00
2023-05-10T02:56:35.464Z,100.00
2023-05-10T02:59:38.207Z,100.00
2023-05-10T03:02:41.664Z,100.00
2023-05-10T03:05:44.949Z,100.00
2023-05-10T03:08:48.097Z,100.00
2023-05-10T03:12:02.029Z,100.00
2023-05-10T03:15:13.016Z,100.00
2023-05-10T03:18:33.045Z,100.00
2023-05-10T03:21:39.155Z,100.00
2023-05-10T03:24:44.281Z,100.00
2023-05-10T03:27:48.785Z,100.00
2023-05-10T03:30:54.014Z,100.00
2023-05-10T03:33:57.052Z,100.00
2023-05-10T03:37:00.166Z,100.00
2023-05-10T03:40:04.642Z,100.00
2023-05-10T03:43:08.236Z,100.00
2023-05-10T03:46:11.503Z,100.00
2023-05-10T03:49:14.439Z,100.00
2023-05-10T03:52:17.434Z,100.00
2023-05-10T03:55:20.174Z,100.00
2023-05-10T03:58:23.295Z,100.00
2023-05-10T04:01:26.158Z,100.00
2023-05-10T04:04:29.296Z,100.00
2023-05-10T04:07:31.994Z,100.00
2023-05-10T04:10:35.344Z,100.00
2023-05-10T04:13:39.232Z,100.00
2023-05-10T04:16:42.278Z,100.00
2023-05-10T04:19:44.987Z,100.00
2023-05-10T04:22:47.865Z,100.00
2023-05-10T04:25:50.446Z,100.00
2023-05-10T04:28:53.374Z,100.00
2023-05-10T04:31:56.326Z,100.00
2023-05-10T04:34:59.260Z,100.00
2023-05-10T04:38:01.948Z,100.00
2023-05-10T04:41:09.345Z,100.00
2023-05-10T04:44:12.015Z,100.00
2023-05-10T04:47:15.008Z,97.50
2023-05-10T04:50:18.668Z,89.18
2023-05-10T04:53:22.093Z,84.06
2023-05-10T04:56:24.760Z,81.21
2023-05-10T04:59:27.742Z,81.57
2023-05-10T05:02:30.634Z,80.17
2023-05-10T05:05:33.688Z,77.05
2023-05-10T05:08:36.562Z,73.75
2023-05-10T05:11:39.575Z,74.13
2023-05-10T05:14:42.310Z,69.45
2023-05-10T05:17:45.669Z,73.78
2023-05-10T05:20:48.384Z,67.33
2023-05-10T05:23:51.310Z,67.36
2023-05-10T05:26:54.048Z,65.66
2023-05-10T05:29:57.765Z,63.74
2023-05-10T05:33:00.465Z,58.51
2023-05-10T05:36:05.919Z,64.19
2023-05-10T05:39:08.887Z,60.24
2023-05-10T05:42:12.810Z,59.85
2023-05-10T05:45:15.782Z,58.29
2023-05-10T05:48:18.872Z,58.39
2023-05-10T05:51:21.569Z,55.24
2023-05-10T05:54:24.404Z,54.57
2023-05-10T05:57:27.719Z,53.64
2023-05-10T06:00:30.703Z,52.90
2023-05-10T06:03:33.883Z,55.76
2023-05-10T06:06:36.526Z,51.40
2023-05-10T06:09:39.531Z,52.78
2023-05-10T06:12:42.664Z,54.24
2023-05-10T06:15:45.662Z,49.30
2023-05-10T06:18:48.335Z,47.19
2023-05-10T06:21:53.172Z,47.77
2023-05-10T06:24:56.675Z,47.03
2023-05-10T06:27:59.651Z,48.23
2023-05-10T06:31:02.933Z,47.39
2023-05-10T06:34:05.984Z,50.14
2023-05-10T06:37:08.643Z,50.87
2023-05-10T06:40:11.918Z,49.13
2023-05-10T06:43:14.661Z,46.56
2023-05-10T06:46:17.658Z,49.92
2023-05-10T06:49:20.339Z,49.95
2023-05-10T06:52:23.255Z,47.26
2023-05-10T06:55:46.023Z,48.91
2023-05-10T06:58:50.062Z,45.92
2023-05-10T07:01:52.771Z,43.73
2023-05-10T07:04:55.895Z,48.39
2023-05-10T07:07:58.600Z,44.41
2023-05-10T07:11:08.400Z,42.47
2023-05-10T07:14:11.111Z,45.47
2023-05-10T07:17:14.099Z,42.69
2023-05-10T07:20:16.793Z,40.25
2023-05-10T07:23:20.469Z,40.85
2023-05-10T07:26:23.174Z,43.47
2023-05-10T07:29:26.625Z,41.98
2023-05-10T07:32:29.355Z,45.15
2023-05-10T07:35:32.746Z,44.53
2023-05-10T07:38:35.331Z,40.29
2023-05-10T07:41:38.774Z,40.09
2023-05-10T07:44:41.416Z,38.50
2023-05-10T07:47:44.373Z,37.98
2023-05-10T07:50:46.986Z,36.71
2023-05-10T07:53:50.036Z,42.26
2023-05-10T07:56:52.715Z,43.90
2023-05-10T07:59:55.581Z,38.23
2023-05-10T08:02:58.251Z,36.36
2023-05-10T08:06:01.328Z,38.46
2023-05-10T08:09:03.983Z,38.46
2023-05-10T08:12:07.299Z,44.87
2023-05-10T08:15:10.474Z,48.63
2023-05-10T08:18:13.529Z,57.94
2023-05-10T08:21:16.678Z,57.23
2023-05-10T08:24:19.624Z,64.81
2023-05-10T08:27:22.257Z,66.99
2023-05-10T08:30:25.221Z,68.91
2023-05-10T08:33:27.896Z,69.93
2023-05-10T08:36:30.948Z,70.91
2023-05-10T08:39:36.736Z,71.00
2023-05-10T08:42:43.813Z,71.43
2023-05-10T08:45:47.993Z,73.44
2023-05-10T08:48:53.118Z,72.11
2023-05-10T08:51:56.986Z,70.39
2023-05-10T08:55:00.089Z,61.32
2023-05-10T08:58:02.904Z,61.93
2023-05-10T09:01:09.842Z,56.05
2023-05-10T09:04:13.690Z,62.11
2023-05-10T09:07:17.656Z,63.82
2023-05-10T09:10:20.689Z,66.61
2023-05-10T09:13:24.976Z,66.03
2023-05-10T09:16:27.779Z,62.18
2023-05-10T09:19:30.811Z,61.69
2023-05-10T09:22:34.121Z,62.36
2023-05-10T09:25:39.603Z,61.88
2023-05-10T09:28:59.372Z,61.41
2023-05-10T09:32:02.349Z,61.88
2023-05-10T09:35:12.634Z,61.94
2023-05-10T09:38:15.560Z,62.99
2023-05-10T09:41:23.347Z,61.97
2023-05-10T09:44:27.296Z,62.42
2023-05-10T09:47:29.996Z,65.47
2023-05-10T09:50:32.994Z,62.03
2023-05-10T09:53:35.565Z,61.63
2023-05-10T09:56:41.094Z,62.80
2023-05-10T09:59:44.394Z,63.15
2023-05-10T10:02:57.127Z,63.94
2023-05-10T10:06:01.114Z,63.11
2023-05-10T10:09:04.113Z,62.88
2023-05-10T10:12:07.278Z,62.62
2023-05-10T10:15:10.625Z,59.18
2023-05-10T10:18:16.700Z,58.59
2023-05-10T10:21:19.861Z,58.94
2023-05-10T10:24:22.771Z,61.37
2023-05-10T10:28:00.681Z,59.78
2023-05-10T10:31:21.173Z,57.52
2023-05-10T10:34:29.181Z,61.50
2023-05-10T10:37:46.297Z,61.14
2023-05-10T10:40:49.023Z,59.70
2023-05-10T10:44:23.797Z,59.26
2023-05-10T10:47:33.939Z,59.68
2023-05-10T10:50:46.268Z,61.41
2023-05-10T10:53:49.849Z,61.17
2023-05-10T10:57:20.159Z,61.99
2023-05-10T11:00:25.948Z,61.83
2023-05-10T11:03:29.973Z,59.25
2023-05-10T11:06:37.164Z,59.58
2023-05-10T11:09:41.182Z,56.58
2023-05-10T11:13:13.309Z,60.03
2023-05-10T11:16:26.589Z,60.86
2023-05-10T11:19:29.363Z,62.06
2023-05-10T11:22:51.326Z,59.46
2023-05-10T11:25:55.026Z,59.13
2023-05-10T11:28:59.486Z,57.04
2023-05-10T11:32:02.109Z,57.50
2023-05-10T11:35:12.665Z,57.72
2023-05-10T11:38:16.096Z,57.15
2023-05-10T11:41:22.923Z,55.67
2023-05-10T11:44:31.342Z,58.19
2023-05-10T11:47:36.722Z,58.14
2023-05-10T11:50:39.479Z,55.82
2023-05-10T11:53:42.967Z,57.67
2023-05-10T11:56:46.534Z,55.15
2023-05-10T11:59:55.378Z,55.87
2023-05-10T12:02:58.338Z,54.83
2023-05-10T12:06:02.155Z,55.22
2023-05-10T12:09:09.203Z,54.55
2023-05-10T12:12:18.098Z,53.29
2023-05-10T12:15:23.031Z,54.94
2023-05-10T12:18:26.506Z,55.50
2023-05-10T12:21:31.822Z,54.86
2023-05-10T12:24:36.517Z,54.46
2023-05-10T12:27:44.281Z,52.67
2023-05-10T12:30:47.203Z,52.45
2023-05-10T12:33:50.471Z,54.75
2023-05-10T12:36:56.908Z,54.32
2023-05-10T12:39:59.509Z,55.16
2023-05-10T12:43:02.585Z,54.02
2023-05-10T12:46:06.950Z,52.50
2023-05-10T12:49:10.064Z,52.58
2023-05-10T12:52:12.844Z,55.48
2023-05-10T12:55:16.091Z,57.66
2023-05-10T12:58:34.418Z,56.97
2023-05-10T13:01:38.844Z,56.52
2023-05-10T13:04:42.869Z,57.81
2023-05-10T13:07:46.245Z,57.33
2023-05-10T13:10:49.344Z,58.78
2023-05-10T13:13:53.635Z,56.97
2023-05-10T13:16:56.547Z,57.85
2023-05-10T13:19:59.466Z,56.35
2023-05-10T13:23:02.175Z,57.70
2023-05-10T13:26:05.045Z,55.76
2023-05-10T13:29:08.202Z,52.58
2023-05-10T13:32:11.240Z,52.26
2023-05-10T13:35:13.901Z,54.51
2023-05-10T13:38:16.834Z,54.75
2023-05-10T13:41:19.447Z,56.13
2023-05-10T13:44:22.350Z,55.15
2023-05-10T13:47:25.061Z,55.53
2023-05-10T13:50:28.131Z,54.49
2023-05-10T13:53:30.946Z,52.03
2023-05-10T13:56:33.943Z,51.32
2023-05-10T13:59:36.515Z,50.83
2023-05-10T14:02:39.722Z,50.94
2023-05-10T14:05:42.707Z,54.42
2023-05-10T14:08:45.771Z,52.58
2023-05-10T14:11:48.751Z,51.22
2023-05-10T14:14:51.374Z,50.16
2023-05-10T14:17:54.428Z,50.81
2023-05-10T14:20:57.256Z,52.97
2023-05-10T14:24:00.192Z,50.20
2023-05-10T14:27:02.792Z,48.84
2023-05-10T14:30:06.358Z,46.56
2023-05-10T14:33:09.095Z,47.06
2023-05-10T14:36:12.018Z,48.99
2023-05-10T14:39:14.749Z,49.08
2023-05-10T14:42:17.832Z,48.66
2023-05-10T14:45:20.951Z,48.76
2023-05-10T14:48:23.860Z,49.74
2023-05-10T14:51:26.476Z,51.45
2023-05-10T14:54:29.421Z,51.79
2023-05-10T14:57:32.330Z,53.13
2023-05-10T15:00:35.317Z,53.10
2023-05-10T15:03:38.744Z,50.86
2023-05-10T15:06:42.605Z,51.90
2023-05-10T15:09:45.991Z,54.22
2023-05-10T15:12:49.145Z,55.21
2023-05-10T15:15:51.778Z,54.14
2023-05-10T15:18:54.865Z,50.57
2023-05-10T15:21:57.492Z,51.17
2023-05-10T15:25:00.403Z,51.95
2023-05-10T15:28:03.756Z,52.87
2023-05-10T15:31:06.840Z,55.33
2023-05-10T15:34:09.495Z,54.93
2023-05-10T15:37:12.615Z,54.10
2023-05-10T15:40:15.501Z,54.37
2023-05-10T15:43:18.408Z,54.05
2023-05-10T15:46:21.080Z,55.75
2023-05-10T15:49:24.079Z,56.73
2023-05-10T15:52:27.310Z,58.24
2023-05-10T15:55:30.214Z,59.02
2023-05-10T15:58:32.852Z,60.14
2023-05-10T16:01:35.823Z,60.03
2023-05-10T16:04:39.166Z,61.90
2023-05-10T16:07:42.437Z,61.78
2023-05-10T16:10:45.430Z,61.37
2023-05-10T16:13:48.063Z,61.91
2023-05-10T16:16:51.625Z,62.82
2023-05-10T16:19:54.493Z,62.10
2023-05-10T16:22:57.374Z,60.51
2023-05-10T16:26:00.145Z,60.89
2023-05-10T16:29:03.259Z,60.66
2023-05-10T16:32:05.955Z,60.96
2023-05-10T16:35:09.446Z,60.06
2023-05-10T16:38:12.065Z,60.79
2023-05-10T16:41:15.043Z,61.33
2023-05-10T16:44:20.162Z,61.75
2023-05-10T16:47:26.848Z,62.24
2023-05-10T16:50:29.826Z,62.38
2023-05-10T16:53:32.752Z,62.23
2023-05-10T16:56:35.429Z,62.92
2023-05-10T16:59:38.330Z,63.30
2023-05-10T17:02:42.007Z,64.96
2023-05-10T17:05:44.966Z,66.37
2023-05-10T17:08:47.622Z,67.05
2023-05-10T17:11:50.509Z,68.01
2023-05-10T17:14:53.395Z,69.40
2023-05-10T17:17:56.481Z,70.05
2023-05-10T17:20:59.422Z,69.93
2023-05-10T17:24:02.693Z,69.91
2023-05-10T17:27:05.386Z,69.19
2023-05-10T17:30:08.821Z,69.17
2023-05-10T17:33:11.456Z,70.35
2023-05-10T17:36:14.343Z,71.26
2023-05-10T17:39:16.995Z,72.51
2023-05-10T17:42:20.875Z,72.83
2023-05-10T17:45:23.670Z,74.04
2023-05-10T17:48:26.806Z,73.52
2023-05-10T17:51:29.623Z,73.47
2023-05-10T17:54:32.556Z,73.48
2023-05-10T17:57:38.084Z,73.59
2023-05-10T18:00:41.071Z,73.87
2023-05-10T18:03:43.977Z,75.39
2023-05-10T18:06:46.639Z,76.07
2023-05-10T18:09:49.767Z,76.95
2023-05-10T18:12:52.646Z,78.06
2023-05-10T18:15:55.683Z,79.04
2023-05-10T18:18:58.489Z,78.91
2023-05-10T18:22:01.683Z,79.19
2023-05-10T18:25:05.046Z,79.51
2023-05-10T18:28:08.652Z,79.78
2023-05-10T18:31:12.479Z,80.75
2023-05-10T18:34:15.869Z,80.40
2023-05-10T18:37:19.015Z,80.37
2023-05-10T18:40:22.299Z,80.47
2023-05-10T18:43:25.341Z,81.16
2023-05-10T18:46:28.904Z,82.10
2023-05-10T18:49:32.489Z,83.74
2023-05-10T18:52:36.961Z,85.28
2023-05-10T18:55:40.097Z,88.41
2023-05-10T18:58:43.388Z,90.11
2023-05-10T19:01:46.363Z,91.40
2023-05-10T19:04:50.835Z,92.84
2023-05-10T19:07:53.906Z,93.78
2023-05-10T19:10:57.240Z,95.12
2023-05-10T19:14:01.400Z,96.75
2023-05-10T19:17:04.834Z,95.99
2023-05-10T19:20:10.595Z,95.41
2023-05-10T19:23:13.944Z,95.92
2023-05-10T19:26:17.086Z,95.48
2023-05-10T19:29:21.258Z,96.78
2023-05-10T19:32:24.589Z,96.72
2023-05-10T19:35:27.943Z,96.57
2023-05-10T19:38:30.988Z,97.09
2023-05-10T19:41:34.101Z,96.39
2023-05-10T19:44:37.068Z,95.85
2023-05-10T19:47:42.105Z,95.07
2023-05-10T19:50:45.490Z,94.61
2023-05-10T19:53:48.893Z,93.89
2023-05-10T19:56:51.992Z,93.61
2023-05-10T19:59:55.181Z,93.34
2023-05-10T20:02:58.466Z,93.01
2023-05-10T20:06:02.278Z,92.42
2023-05-10T20:09:05.265Z,90.62
2023-05-10T20:12:08.867Z,90.80
2023-05-10T20:15:11.832Z,91.62
2023-05-10T20:18:15.141Z,90.62
2023-05-10T20:21:17.860Z,90.92
2023-05-10T20:24:20.945Z,90.56
2023-05-10T20:27:23.774Z,90.80
2023-05-10T20:30:27.090Z,91.04
2023-05-10T20:33:30.674Z,92.05
2023-05-10T20:36:33.864Z,92.11
2023-05-10T20:39:36.810Z,92.25
2023-05-10T20:42:40.167Z,92.67
2023-05-10T20:45:43.122Z,93.79
2023-05-10T20:48:46.475Z,94.99
2023-05-10T20:51:49.289Z,96.58
2023-05-10T20:54:52.209Z,97.51
2023-05-10T20:57:54.847Z,97.58
2023-05-10T21:00:57.855Z,97.59
2023-05-10T21:04:00.438Z,98.01
2023-05-10T21:07:03.352Z,100.00
2023-05-10T21:10:08.161Z,100.00
2023-05-10T21:13:11.055Z,100.00
2023-05-10T21:16:13.776Z,100.00
2023-05-10T21:19:17.376Z,100.00
2023-05-10T21:22:20.005Z,100.00
2023-05-10T21:25:23.287Z,100.00
2023-05-10T21:28:25.942Z,100.00
2023-05-10T21:31:28.956Z,100.00
2023-05-10T21:34:31.600Z,100.00
2023-05-10T21:37:34.516Z,100.00
2023-05-10T21:40:39.337Z,100.00
2023-05-10T21:43:42.804Z,100.00
2023-05-10T21:46:45.450Z,100.00
2023-05-10T21:49:48.399Z,100.00
2023-05-10T21:52:51.183Z,100.00
2023-05-10T21:55:56.247Z,100.00
2023-05-10T21:58:58.874Z,100.00
2023-05-10T22:02:02.065Z,100.00
2023-05-10T22:05:05.419Z,100.00
2023-05-10T22:08:08.216Z,100.00
2023-05-10T22:11:11.136Z,100.00
2023-05-10T22:14:13.672Z,100.00
2023-05-10T22:17:16.794Z,100.00
2023-05-10T22:20:19.836Z,100.00
2023-05-10T22:23:22.948Z,100.00
2023-05-10T22:26:26.134Z,100.00
2023-05-10T22:29:32.444Z,100.00
2023-05-10T22:32:35.154Z,100.00
2023-05-10T22:35:38.140Z,100.00
2023-05-10T22:38:40.893Z,100.00
2023-05-10T22:41:43.792Z,100.00
2023-05-10T22:44:46.665Z,100.00
2023-05-10T22:47:49.637Z,100.00
2023-05-10T22:50:52.264Z,100.00
2023-05-10T22:53:55.198Z,100.00
2023-05-10T22:56:58.097Z,100.00
2023-05-10T23:00:01.266Z,100.00
2023-05-10T23:03:06.578Z,100.00
2023-05-10T23:06:09.871Z,100.00
2023-05-10T23:09:12.671Z,100.00
2023-05-10T23:12:15.692Z,100.00
2023-05-10T23:15:18.390Z,100.00
2023-05-10T23:18:21.333Z,100.00
2023-05-10T23:21:25.264Z,100.00
2023-05-10T23:24:28.291Z,100.00
2023-05-10T23:27:30.967Z,100.00
2023-05-10T23:30:33.908Z,100.00
2023-05-10T23:33:36.480Z,100.00
2023-05-10T23:36:39.480Z,100.00
2023-05-10T23:39:42.086Z,100.00
2023-05-10T23:42:45.156Z,100.00
2023-05-10T23:45:58.182Z,100.00
2023-05-10T23:49:01.272Z,100.00
2023-05-10T23:52:04.252Z,100.00
2023-05-10T23:55:07.739Z,100.00
2023-05-10T23:58:10.333Z,100.00
